LYBE/BEG METAR and TAF weather

Enter ICAO airport designator
Station Type Date Time Source
LYBE METAR 2024/04/20 22:30 UTC NOAA

LYBE 202230Z 34007KT CAVOK 08/02 Q1012 NOSIG


Station Type Date Time Source
LYBE Decoded METAR 2024/04/20 22:30 UTC NOAA

Beograd / Surcin, Serbia and Montenegro (LYBE) 44-49N 020-17E 99M
Apr 20, 2024 - 06:30 PM EDT / 2024.04.20 2230 UTC
Wind: from the NNW (340 degrees) at 8 MPH (7 KT):0
Visibility: greater than 7 mile(s):0
Temperature: 46 F (8 C)
Dew Point: 35 F (2 C)
Relative Humidity: 65%
Pressure (altimeter): 29.88 in. Hg (1012 hPa)
ob: LYBE 202230Z 34007KT CAVOK 08/02 Q1012 NOSIG
cycle: 22

Station Type Date Time Source
LYBE TAF 2024/04/20 18:21 UTC NOAA